Pekin, Ohio
Current Conditions -  °F | °C
As of 12:51 AM on Thursday 23 Oct 2014 (Local Time) from KCAK Reporting Station
Overcast Overcast  
Wind Chill: 44°   Ceiling: 4100
Heat Index: 47°   Visibility: 10mi
Dew Point: 43°   Wind: 6mph
Humidity: 86%   Direction: 330°NNW
Pressure: 30.19"   Gusts: NA
Location:  40.7427°N, 81.0929°W
Report Text: KCAK 230451Z 33005KT 10SM OVC041 08/06 A3019 RMK AO2 SLP229 T00830061 401060050 $
Loading
Personal Weather Stations






























Interactive Weather Map
Tropical Storm Tracking
New forecast layout! Learn more

10-Day Weather Forecast

Advertisements
Track Severe Weather on mobile